Airfield :
LOGIN :

Register | Disclaimer

   EN    FR    IT 

 










Legend :    VFR   Marginal VFR   IFR   Intensive IFR   Very Intensive IFR
Visi :
Ceiling :
>= 8 km
>= 3000ft
5 to 8 km
1000 to 3000 ft
1500m to 5 km
500 to 1000 ft
800 to 1500m
200 to 500 ft
< 800m
< 200 ft
Symbols :   Thunderstorms  Fog  Heavy snow  Heavy precipitations  Wind > 20 kt
SIGMETs :     Misc.  Thunderstorms  Icing  Turbulence  Mountain Waves  Volcanic Ashes






- Airport Elevation : 28 ft
- IATA code : SOZ


LFKS - Solenzara

CURRENT METAR :
  • 261030Z AUTO 09005KT 060V120 CAVOK 14/07 Q1030

EXPIRED METARs :
  • 261000Z AUTO VRB01KT CAVOK 15/06 Q1030
  • 260930Z AUTO VRB02KT CAVOK 13/05 Q1030
  • 260900Z AUTO 27003KT 240V300 9999 BKN039 10/05 Q1030
  • 260830Z AUTO 27005KT 240V300 9999 OVC038 08/04 Q1030
  • 260800Z AUTO 27006KT 250V310 9999 OVC038 07/03 Q1030

TAF TAF LFKS
Valid from the 26 at 09:00 until the 27 at 09:00 UTC


260800Z 2609/2709 27006KT 9999 BKN030



MET'MAP, your aeronautical weather chart ! - Copyright ORBIFLY December 2007 - Disclaimer

ORBIFLY MET'MAP TEAM :

Programming & Development : Alexandra Zaïnal
Original concept : Baudouin d'Aumeries
Technical & hardware support : Manuel Goepfert
Assistance : Marc-Olivier Méhu

Contact : metmap@orbifly.com




SOURCES & CREDITS :

   NOAA